createdAt,value
2017-12-15T00:00:08.830Z,97.19
2017-12-15T00:02:37.150Z,97.10
2017-12-15T00:05:05.527Z,96.24
2017-12-15T00:07:33.851Z,96.39
2017-12-15T00:10:02.190Z,96.71
2017-12-15T00:12:30.539Z,96.71
2017-12-15T00:14:58.863Z,96.05
2017-12-15T00:17:27.190Z,96.61
2017-12-15T00:19:55.531Z,96.27
2017-12-15T00:22:23.860Z,97.17
2017-12-15T00:24:52.187Z,97.81
2017-12-15T00:27:20.532Z,97.54
2017-12-15T00:29:49.215Z,97.02
2017-12-15T00:32:17.654Z,97.50
2017-12-15T00:34:47.333Z,97.15
2017-12-15T00:37:16.168Z,96.88
2017-12-15T00:39:44.938Z,96.76
2017-12-15T00:42:14.031Z,97.05
2017-12-15T00:44:42.539Z,97.40
2017-12-15T00:47:10.883Z,98.24
2017-12-15T00:49:39.204Z,98.97
2017-12-15T00:52:07.535Z,98.96
2017-12-15T00:54:35.865Z,99.13
2017-12-15T00:57:04.199Z,99.18
2017-12-15T00:59:33.285Z,99.79
2017-12-15T01:02:01.615Z,100.00
2017-12-15T01:04:29.944Z,99.95
2017-12-15T01:06:58.314Z,99.77
2017-12-15T01:09:26.641Z,99.20
2017-12-15T01:11:54.979Z,99.08
2017-12-15T01:14:23.320Z,98.77
2017-12-15T01:16:51.691Z,98.78
2017-12-15T01:19:20.002Z,98.59
2017-12-15T01:21:48.351Z,99.36
2017-12-15T01:24:16.678Z,99.49
2017-12-15T01:26:46.555Z,99.10
2017-12-15T01:29:14.887Z,99.21
2017-12-15T01:31:43.219Z,99.15
2017-12-15T01:34:11.540Z,99.09
2017-12-15T01:36:41.361Z,98.54
2017-12-15T01:39:09.684Z,98.37
2017-12-15T01:41:38.016Z,98.19
2017-12-15T01:44:06.362Z,98.84
2017-12-15T01:46:34.692Z,98.51
2017-12-15T01:49:03.010Z,98.15
2017-12-15T01:51:31.350Z,98.50
2017-12-15T01:53:59.667Z,98.29
2017-12-15T01:56:28.750Z,99.39
2017-12-15T01:58:57.073Z,99.22
2017-12-15T02:01:26.562Z,99.49
2017-12-15T02:03:54.886Z,99.88
2017-12-15T02:06:23.211Z,100.00
2017-12-15T02:08:52.294Z,100.00
2017-12-15T02:11:20.640Z,100.00
2017-12-15T02:13:48.959Z,100.00
2017-12-15T02:16:17.288Z,100.00
2017-12-15T02:18:45.624Z,100.00
2017-12-15T02:21:13.949Z,100.00
2017-12-15T02:23:42.531Z,100.00
2017-12-15T02:26:10.857Z,100.00
2017-12-15T02:28:39.197Z,100.00
2017-12-15T02:31:07.540Z,100.00
2017-12-15T02:33:35.915Z,100.00
2017-12-15T02:36:04.250Z,100.00
2017-12-15T02:38:33.360Z,100.00
2017-12-15T02:41:01.692Z,100.00
2017-12-15T02:43:30.023Z,100.00
2017-12-15T02:45:59.439Z,100.00
2017-12-15T02:48:27.778Z,100.00
2017-12-15T02:50:56.111Z,100.00
2017-12-15T02:53:24.481Z,100.00
2017-12-15T02:55:52.802Z,100.00
2017-12-15T02:58:21.143Z,100.00
2017-12-15T03:00:49.478Z,100.00
2017-12-15T03:03:17.809Z,100.00
2017-12-15T03:05:46.135Z,99.41
2017-12-15T03:08:14.459Z,99.56
2017-12-15T03:10:42.792Z,99.36
2017-12-15T03:13:11.879Z,98.68
2017-12-15T03:15:40.212Z,98.81
2017-12-15T03:18:08.615Z,98.61
2017-12-15T03:20:36.902Z,98.29
2017-12-15T03:23:05.219Z,98.12
2017-12-15T03:25:33.934Z,98.24
2017-12-15T03:28:02.264Z,98.82
2017-12-15T03:30:30.586Z,98.30
2017-12-15T03:32:58.917Z,98.21
2017-12-15T03:35:27.243Z,97.67
2017-12-15T03:37:55.567Z,97.87
2017-12-15T03:40:24.655Z,98.26
2017-12-15T03:42:52.970Z,97.90
2017-12-15T03:45:21.290Z,97.39
2017-12-15T03:47:49.626Z,97.85
2017-12-15T03:50:17.966Z,97.72
2017-12-15T03:52:46.319Z,97.40
2017-12-15T03:55:14.650Z,97.31
2017-12-15T03:57:42.972Z,96.96
2017-12-15T04:00:11.309Z,96.60
2017-12-15T04:02:39.654Z,96.61
2017-12-15T04:05:08.755Z,96.30
2017-12-15T04:07:37.091Z,96.09
2017-12-15T04:10:05.415Z,96.32
2017-12-15T04:12:33.739Z,96.51
2017-12-15T04:15:02.106Z,95.87
2017-12-15T04:17:30.413Z,96.58
2017-12-15T04:19:58.813Z,96.14
2017-12-15T04:22:27.086Z,95.87
2017-12-15T04:24:55.667Z,95.76
2017-12-15T04:27:24.007Z,96.10
2017-12-15T04:29:52.363Z,96.57
2017-12-15T04:32:20.692Z,96.62
2017-12-15T04:34:49.012Z,96.68
2017-12-15T04:37:17.342Z,96.79
2017-12-15T04:39:45.670Z,96.47
2017-12-15T04:42:13.996Z,97.30
2017-12-15T04:44:42.315Z,97.49
2017-12-15T04:47:10.630Z,97.01
2017-12-15T04:49:38.951Z,97.05
2017-12-15T04:52:07.283Z,96.91
2017-12-15T04:54:35.639Z,97.84
2017-12-15T04:57:03.971Z,97.60
2017-12-15T04:59:32.330Z,97.28
2017-12-15T05:02:00.665Z,97.18
2017-12-15T05:04:28.980Z,96.98
2017-12-15T05:06:57.326Z,96.90
2017-12-15T05:09:25.654Z,96.93
2017-12-15T05:11:53.980Z,96.74
2017-12-15T05:14:23.115Z,96.74
2017-12-15T05:16:51.463Z,96.38
2017-12-15T05:19:19.775Z,96.31
2017-12-15T05:21:48.107Z,96.46
2017-12-15T05:24:16.422Z,96.01
2017-12-15T05:26:45.897Z,95.68
2017-12-15T05:29:14.211Z,95.51
2017-12-15T05:31:42.560Z,95.26
2017-12-15T05:34:10.891Z,95.99
2017-12-15T05:36:41.466Z,95.63
2017-12-15T05:39:09.799Z,95.48
2017-12-15T05:41:38.886Z,94.89
2017-12-15T05:44:07.214Z,94.47
2017-12-15T05:46:35.522Z,94.08
2017-12-15T05:49:03.856Z,93.45
2017-12-15T05:51:32.175Z,93.40
2017-12-15T05:54:00.494Z,93.01
2017-12-15T05:56:28.840Z,92.50
2017-12-15T05:58:57.157Z,92.09
2017-12-15T06:01:25.466Z,92.18
2017-12-15T06:03:53.767Z,92.13
2017-12-15T06:06:22.075Z,92.60
2017-12-15T06:08:50.385Z,92.46
2017-12-15T06:11:19.621Z,92.60
2017-12-15T06:13:47.950Z,93.34
2017-12-15T06:16:16.266Z,93.46
2017-12-15T06:18:44.587Z,94.17
2017-12-15T06:21:12.914Z,93.86
2017-12-15T06:23:41.234Z,93.79
2017-12-15T06:26:09.559Z,93.79
2017-12-15T06:28:37.922Z,93.45
2017-12-15T06:31:06.251Z,93.43
2017-12-15T06:33:34.574Z,93.29
2017-12-15T06:36:02.914Z,92.88
2017-12-15T06:38:31.293Z,92.90
2017-12-15T06:40:59.590Z,93.66
2017-12-15T06:43:27.926Z,93.59
2017-12-15T06:45:56.245Z,93.45
2017-12-15T06:48:24.577Z,93.08
2017-12-15T06:50:52.905Z,93.61
2017-12-15T06:53:21.225Z,93.83
2017-12-15T06:55:49.562Z,93.91
2017-12-15T06:58:17.877Z,93.75
2017-12-15T07:00:46.200Z,93.76
2017-12-15T07:03:14.544Z,93.29
2017-12-15T07:05:42.871Z,94.04
2017-12-15T07:08:11.190Z,96.80
2017-12-15T07:10:39.511Z,96.34
2017-12-15T07:13:08.583Z,97.18
2017-12-15T07:15:36.918Z,97.06
2017-12-15T07:18:05.244Z,96.63
2017-12-15T07:20:34.370Z,96.47
2017-12-15T07:23:02.733Z,96.18
2017-12-15T07:25:31.038Z,95.75
2017-12-15T07:27:59.390Z,95.66
2017-12-15T07:30:27.707Z,95.18
2017-12-15T07:32:56.040Z,95.04
2017-12-15T07:35:24.416Z,94.80
2017-12-15T07:37:52.771Z,94.92
2017-12-15T07:40:21.121Z,94.75
2017-12-15T07:42:49.447Z,95.18
2017-12-15T07:45:17.775Z,95.13
2017-12-15T07:47:46.075Z,94.60
2017-12-15T07:50:14.390Z,95.02
2017-12-15T07:52:42.773Z,95.13
2017-12-15T07:55:11.094Z,95.25
2017-12-15T07:57:39.428Z,94.32
2017-12-15T08:00:07.788Z,94.83
2017-12-15T08:02:36.126Z,94.15
2017-12-15T08:05:04.451Z,94.57
2017-12-15T08:07:32.783Z,94.22
2017-12-15T08:10:01.102Z,94.83
2017-12-15T08:12:29.423Z,94.51
2017-12-15T08:14:57.755Z,94.35
2017-12-15T08:17:26.084Z,93.59
2017-12-15T08:19:54.422Z,94.49
2017-12-15T08:22:22.767Z,94.25
2017-12-15T08:24:51.110Z,94.31
2017-12-15T08:27:19.443Z,94.44
2017-12-15T08:29:47.774Z,94.92
2017-12-15T08:32:16.104Z,95.11
2017-12-15T08:34:44.423Z,94.99
2017-12-15T08:37:12.750Z,94.79
2017-12-15T08:39:41.092Z,95.24
2017-12-15T08:42:09.414Z,95.40
2017-12-15T08:44:37.734Z,95.20
2017-12-15T08:47:06.044Z,96.03
2017-12-15T08:49:34.356Z,96.41
2017-12-15T08:52:02.678Z,96.28
2017-12-15T08:54:30.985Z,97.24
2017-12-15T08:56:59.311Z,96.12
2017-12-15T08:59:27.631Z,96.70
2017-12-15T09:01:55.955Z,97.25
2017-12-15T09:04:24.304Z,96.10
2017-12-15T09:06:52.632Z,96.54
2017-12-15T09:09:20.962Z,96.06
2017-12-15T09:11:49.287Z,95.93
2017-12-15T09:14:17.608Z,96.61
2017-12-15T09:16:45.938Z,95.83
2017-12-15T09:19:14.267Z,95.70
2017-12-15T09:21:42.583Z,94.85
2017-12-15T09:24:10.941Z,95.36
2017-12-15T09:26:39.234Z,95.21
2017-12-15T09:29:07.543Z,94.80
2017-12-15T09:31:35.881Z,95.79
2017-12-15T09:34:04.185Z,94.77
2017-12-15T09:36:32.523Z,94.77
2017-12-15T09:39:00.871Z,95.06
2017-12-15T09:41:29.958Z,95.42
2017-12-15T09:43:59.053Z,95.38
2017-12-15T09:46:27.387Z,94.75
2017-12-15T09:48:55.723Z,94.99
2017-12-15T09:51:24.831Z,95.00
2017-12-15T09:53:53.149Z,94.87
2017-12-15T09:56:21.475Z,94.20
2017-12-15T09:58:49.798Z,94.82
2017-12-15T10:01:18.132Z,94.45
2017-12-15T10:03:46.455Z,94.87
2017-12-15T10:06:14.775Z,94.39
2017-12-15T10:08:43.100Z,94.56
2017-12-15T10:11:11.432Z,94.55
2017-12-15T10:13:40.619Z,94.05
2017-12-15T10:16:09.698Z,94.83
2017-12-15T10:18:38.037Z,94.40
2017-12-15T10:21:06.381Z,94.44
2017-12-15T10:23:34.902Z,92.60
2017-12-15T10:26:03.431Z,93.62
2017-12-15T10:28:32.196Z,93.31
2017-12-15T10:31:00.623Z,93.96
2017-12-15T10:33:29.118Z,93.57
2017-12-15T10:35:57.435Z,94.29
2017-12-15T10:38:25.775Z,95.09
2017-12-15T10:40:54.431Z,94.87
2017-12-15T10:43:22.833Z,94.46
2017-12-15T10:45:51.242Z,94.93
2017-12-15T10:48:19.582Z,94.94
2017-12-15T10:50:47.982Z,95.34
2017-12-15T10:53:16.304Z,95.15
2017-12-15T10:55:44.832Z,94.88
2017-12-15T10:58:13.623Z,94.79
2017-12-15T11:00:42.039Z,94.33
2017-12-15T11:03:10.367Z,95.36
2017-12-15T11:05:38.764Z,95.47
2017-12-15T11:08:07.255Z,94.40
2017-12-15T11:10:35.647Z,93.65
2017-12-15T11:13:03.975Z,93.38
2017-12-15T11:15:32.292Z,93.05
2017-12-15T11:18:01.748Z,92.26
2017-12-15T11:20:30.956Z,91.58
2017-12-15T11:23:00.019Z,90.81
2017-12-15T11:25:28.331Z,90.35
2017-12-15T11:27:56.642Z,88.98
2017-12-15T11:30:24.967Z,87.90
2017-12-15T11:32:53.287Z,87.18
2017-12-15T11:35:21.599Z,86.48
2017-12-15T11:37:49.918Z,85.01
2017-12-15T11:40:18.251Z,83.56
2017-12-15T11:42:46.579Z,84.22
2017-12-15T11:45:14.904Z,83.97
2017-12-15T11:47:43.234Z,85.15
2017-12-15T11:50:11.568Z,87.40
2017-12-15T11:52:39.902Z,87.55
2017-12-15T11:55:08.215Z,86.56
2017-12-15T11:57:36.547Z,87.00
2017-12-15T12:00:05.570Z,87.75
2017-12-15T12:02:33.935Z,87.41
2017-12-15T12:05:02.264Z,87.90
2017-12-15T12:07:30.611Z,88.88
2017-12-15T12:09:58.967Z,89.55
2017-12-15T12:12:27.299Z,88.92
2017-12-15T12:14:55.687Z,89.32
2017-12-15T12:17:24.015Z,88.65
2017-12-15T12:19:52.351Z,89.17
2017-12-15T12:22:20.832Z,89.36
2017-12-15T12:24:49.159Z,89.31
2017-12-15T12:27:17.487Z,89.64
2017-12-15T12:29:45.840Z,89.03
2017-12-15T12:32:14.975Z,88.61
2017-12-15T12:34:43.375Z,89.61
2017-12-15T12:37:11.710Z,89.94
2017-12-15T12:39:40.030Z,90.25
2017-12-15T12:42:08.350Z,90.54
2017-12-15T12:44:37.434Z,89.53
2017-12-15T12:47:05.750Z,90.00
2017-12-15T12:49:34.104Z,90.21
2017-12-15T12:52:03.230Z,90.44
2017-12-15T12:54:31.573Z,90.71
2017-12-15T12:56:59.986Z,91.07
2017-12-15T12:59:28.322Z,89.71
2017-12-15T13:01:56.651Z,89.54
2017-12-15T13:04:24.971Z,89.42
2017-12-15T13:06:54.074Z,88.70
2017-12-15T13:09:22.411Z,88.65
2017-12-15T13:11:50.748Z,88.48
2017-12-15T13:14:19.082Z,89.64
2017-12-15T13:16:47.418Z,90.60
2017-12-15T13:19:15.769Z,90.17
2017-12-15T13:21:44.102Z,89.26
2017-12-15T13:24:12.423Z,89.43
2017-12-15T13:26:41.244Z,90.42
2017-12-15T13:29:09.580Z,89.87
2017-12-15T13:31:37.903Z,90.70
2017-12-15T13:34:06.233Z,91.92
2017-12-15T13:36:34.558Z,91.29
2017-12-15T13:39:02.875Z,90.71
2017-12-15T13:41:31.202Z,90.54
2017-12-15T13:43:59.527Z,91.44
2017-12-15T13:46:27.851Z,90.97
2017-12-15T13:48:56.179Z,90.58
2017-12-15T13:51:24.503Z,91.23
2017-12-15T13:53:52.817Z,92.05
2017-12-15T13:56:21.154Z,91.81
2017-12-15T13:58:49.467Z,90.47
2017-12-15T14:01:17.791Z,90.27
2017-12-15T14:03:46.117Z,89.96
2017-12-15T14:06:16.067Z,89.66
2017-12-15T14:08:44.383Z,90.21
2017-12-15T14:11:12.724Z,90.22
2017-12-15T14:13:41.038Z,90.46
2017-12-15T14:16:09.351Z,91.85
2017-12-15T14:18:37.676Z,91.71
2017-12-15T14:21:06.005Z,91.79
2017-12-15T14:23:34.314Z,90.63
2017-12-15T14:26:02.655Z,91.99
2017-12-15T14:28:30.962Z,93.39
2017-12-15T14:30:59.285Z,93.78
2017-12-15T14:33:27.589Z,93.77
2017-12-15T14:35:55.906Z,93.08
2017-12-15T14:38:24.990Z,92.67
2017-12-15T14:40:53.309Z,92.14
2017-12-15T14:43:21.629Z,94.05
2017-12-15T14:45:50.000Z,94.64
2017-12-15T14:48:18.328Z,95.20
2017-12-15T14:50:46.767Z,95.66
2017-12-15T14:53:15.066Z,97.84
2017-12-15T14:55:43.411Z,98.58
2017-12-15T14:58:11.726Z,98.59
2017-12-15T15:00:40.058Z,97.81
2017-12-15T15:03:08.382Z,97.19
2017-12-15T15:05:37.504Z,96.65
2017-12-15T15:08:05.839Z,96.32
2017-12-15T15:10:34.175Z,95.41
2017-12-15T15:13:02.646Z,95.78
2017-12-15T15:15:30.985Z,94.81
2017-12-15T15:18:00.223Z,94.59
2017-12-15T15:20:28.533Z,94.71
2017-12-15T15:22:56.882Z,94.72
2017-12-15T15:25:25.238Z,97.51
2017-12-15T15:27:53.555Z,98.74
2017-12-15T15:30:21.967Z,99.72
2017-12-15T15:32:50.309Z,99.90
2017-12-15T15:35:18.627Z,99.79
2017-12-15T15:37:47.011Z,98.74
2017-12-15T15:40:15.358Z,98.27
2017-12-15T15:42:43.710Z,97.43
2017-12-15T15:45:12.030Z,96.13
2017-12-15T15:47:40.395Z,95.67
2017-12-15T15:50:08.727Z,94.92
2017-12-15T15:52:37.051Z,94.62
2017-12-15T15:55:05.407Z,94.08
2017-12-15T15:57:33.738Z,94.41
2017-12-15T16:00:02.064Z,94.10
2017-12-15T16:02:30.382Z,93.98
2017-12-15T16:04:59.461Z,94.16
2017-12-15T16:07:27.799Z,94.30
2017-12-15T16:09:56.127Z,94.30
2017-12-15T16:12:25.215Z,94.17
2017-12-15T16:14:53.534Z,94.01
2017-12-15T16:17:22.631Z,94.52
2017-12-15T16:19:50.955Z,96.06
2017-12-15T16:22:19.289Z,96.28
2017-12-15T16:24:47.607Z,95.90
2017-12-15T16:27:15.951Z,95.81
2017-12-15T16:29:44.296Z,95.56
2017-12-15T16:32:12.620Z,95.62
2017-12-15T16:34:41.144Z,95.84
2017-12-15T16:37:10.242Z,95.58
2017-12-15T16:39:40.295Z,94.99
2017-12-15T16:42:08.631Z,94.46
2017-12-15T16:44:36.972Z,93.59
2017-12-15T16:47:05.294Z,93.80
2017-12-15T16:49:33.631Z,92.77
2017-12-15T16:52:01.947Z,93.31
2017-12-15T16:54:31.039Z,94.99
2017-12-15T16:56:59.365Z,96.87
2017-12-15T16:59:27.690Z,96.69
2017-12-15T17:01:57.898Z,96.39
2017-12-15T17:04:26.223Z,95.56
2017-12-15T17:06:54.550Z,94.59
2017-12-15T17:09:22.862Z,94.41
2017-12-15T17:11:51.258Z,93.53
2017-12-15T17:14:20.059Z,96.72
2017-12-15T17:16:48.403Z,98.69
2017-12-15T17:19:16.804Z,98.14
2017-12-15T17:21:45.531Z,97.46
2017-12-15T17:24:13.919Z,96.72
2017-12-15T17:26:43.684Z,96.15
2017-12-15T17:29:12.010Z,95.39
2017-12-15T17:31:40.358Z,95.37
2017-12-15T17:34:08.759Z,95.01
2017-12-15T17:36:37.098Z,94.80
2017-12-15T17:39:05.454Z,94.83
2017-12-15T17:41:33.798Z,95.56
2017-12-15T17:44:02.131Z,95.92
2017-12-15T17:46:30.491Z,95.33
2017-12-15T17:48:58.801Z,95.92
2017-12-15T17:51:27.132Z,95.46
2017-12-15T17:53:55.449Z,94.56
2017-12-15T17:56:23.771Z,94.33
2017-12-15T17:58:52.088Z,94.60
2017-12-15T18:01:20.466Z,94.18
2017-12-15T18:03:48.777Z,94.15
2017-12-15T18:06:17.115Z,93.74
2017-12-15T18:08:45.447Z,93.08
2017-12-15T18:11:13.780Z,93.17
2017-12-15T18:13:42.102Z,93.60
2017-12-15T18:16:10.435Z,93.58
2017-12-15T18:18:38.755Z,93.87
2017-12-15T18:21:07.098Z,93.71
2017-12-15T18:23:35.428Z,93.63
2017-12-15T18:26:03.767Z,93.34
2017-12-15T18:28:32.091Z,93.68
2017-12-15T18:31:01.184Z,93.44
2017-12-15T18:33:29.522Z,93.49
2017-12-15T18:35:57.847Z,92.83
2017-12-15T18:38:26.996Z,92.77
2017-12-15T18:40:56.302Z,92.56
2017-12-15T18:43:25.197Z,92.74
2017-12-15T18:45:53.780Z,93.03
2017-12-15T18:48:22.979Z,92.70
2017-12-15T18:50:51.372Z,92.44
2017-12-15T18:53:19.813Z,92.60
2017-12-15T18:55:48.439Z,93.34
2017-12-15T18:58:17.039Z,93.24
2017-12-15T19:00:46.046Z,93.91
2017-12-15T19:03:14.968Z,93.95
2017-12-15T19:05:43.589Z,93.86
2017-12-15T19:08:13.136Z,93.57
2017-12-15T19:10:42.311Z,94.25
2017-12-15T19:13:11.367Z,94.73
2017-12-15T19:15:41.353Z,94.25
2017-12-15T19:18:11.914Z,94.18
2017-12-15T19:20:42.136Z,93.88
2017-12-15T19:23:12.341Z,93.84
2017-12-15T19:25:42.174Z,93.22
2017-12-15T19:28:12.328Z,94.01
2017-12-15T19:30:43.214Z,94.31
2017-12-15T19:33:13.217Z,94.17
2017-12-15T19:35:42.991Z,94.86
2017-12-15T19:38:12.921Z,95.22
2017-12-15T19:40:43.119Z,94.89
2017-12-15T19:43:13.253Z,94.95
2017-12-15T19:45:43.460Z,94.90
2017-12-15T19:48:13.720Z,94.35
2017-12-15T19:50:43.655Z,94.63
2017-12-15T19:53:13.771Z,95.80
2017-12-15T19:55:43.787Z,96.43
2017-12-15T19:58:13.732Z,96.76
2017-12-15T20:00:44.704Z,96.16
2017-12-15T20:03:14.650Z,95.65
2017-12-15T20:05:44.569Z,95.52
2017-12-15T20:08:14.487Z,95.33
2017-12-15T20:10:45.109Z,95.08
2017-12-15T20:13:15.125Z,94.49
2017-12-15T20:15:45.076Z,95.31
2017-12-15T20:18:14.995Z,94.79
2017-12-15T20:20:45.014Z,95.11
2017-12-15T20:23:15.171Z,94.05
2017-12-15T20:25:45.452Z,93.96
2017-12-15T20:28:15.425Z,93.49
2017-12-15T20:30:45.496Z,93.34
2017-12-15T20:33:15.648Z,93.53
2017-12-15T20:35:45.703Z,93.57
2017-12-15T20:38:15.601Z,93.25
2017-12-15T20:40:45.758Z,93.33
2017-12-15T20:43:15.962Z,93.04
2017-12-15T20:45:46.582Z,92.60
2017-12-15T20:48:16.585Z,92.98
2017-12-15T20:50:46.561Z,93.24
2017-12-15T20:53:17.526Z,92.76
2017-12-15T20:55:48.542Z,92.36
2017-12-15T20:58:18.562Z,92.09
2017-12-15T21:00:48.634Z,91.63
2017-12-15T21:03:18.611Z,91.72
2017-12-15T21:05:48.749Z,92.06
2017-12-15T21:08:18.651Z,92.40
2017-12-15T21:10:48.688Z,92.28
2017-12-15T21:13:19.135Z,92.34
2017-12-15T21:15:49.028Z,92.20
2017-12-15T21:18:19.013Z,92.12
2017-12-15T21:20:49.684Z,92.22
2017-12-15T21:23:19.617Z,92.37
2017-12-15T21:25:49.662Z,92.78
2017-12-15T21:28:19.681Z,92.79
2017-12-15T21:30:49.526Z,93.43
2017-12-15T21:33:19.395Z,93.66
2017-12-15T21:35:49.326Z,93.61
2017-12-15T21:38:20.239Z,93.54
2017-12-15T21:40:50.600Z,93.59
2017-12-15T21:43:21.319Z,93.37
2017-12-15T21:45:51.237Z,93.19
2017-12-15T21:48:21.877Z,93.79
2017-12-15T21:50:51.742Z,93.83
2017-12-15T21:53:21.575Z,94.11
2017-12-15T21:55:51.510Z,94.65
2017-12-15T21:58:21.848Z,94.83
2017-12-15T22:00:51.787Z,95.53
2017-12-15T22:03:21.637Z,96.67
2017-12-15T22:05:51.504Z,97.10
2017-12-15T22:08:21.423Z,96.78
2017-12-15T22:10:51.354Z,96.36
2017-12-15T22:13:21.148Z,96.22
2017-12-15T22:15:50.980Z,96.72
2017-12-15T22:18:21.827Z,97.46
2017-12-15T22:20:51.610Z,96.99
2017-12-15T22:23:21.437Z,96.47
2017-12-15T22:25:51.067Z,96.12
2017-12-15T22:28:20.823Z,96.25
2017-12-15T22:30:50.557Z,96.59
2017-12-15T22:33:20.292Z,96.35
2017-12-15T22:35:49.985Z,96.12
2017-12-15T22:38:18.812Z,96.08
2017-12-15T22:40:47.201Z,96.11
2017-12-15T22:43:15.544Z,95.96
2017-12-15T22:45:43.952Z,98.60
2017-12-15T22:48:12.302Z,99.31
2017-12-15T22:50:40.628Z,100.00
2017-12-15T22:53:08.955Z,100.00
2017-12-15T22:55:37.286Z,100.00
2017-12-15T22:58:05.628Z,100.00
2017-12-15T23:00:33.961Z,100.00
2017-12-15T23:03:02.287Z,100.00
2017-12-15T23:05:30.615Z,100.00
2017-12-15T23:07:58.939Z,100.00
2017-12-15T23:10:27.259Z,100.00
2017-12-15T23:12:56.496Z,100.00
2017-12-15T23:15:24.810Z,100.00
2017-12-15T23:17:53.912Z,100.00
2017-12-15T23:20:23.006Z,100.00
2017-12-15T23:22:52.109Z,100.00
2017-12-15T23:25:20.427Z,100.00
2017-12-15T23:27:48.768Z,100.00
2017-12-15T23:30:17.088Z,100.00
2017-12-15T23:32:45.411Z,99.79
2017-12-15T23:35:14.547Z,98.62
2017-12-15T23:37:42.863Z,97.93
2017-12-15T23:40:11.185Z,97.60
2017-12-15T23:42:39.514Z,97.27
2017-12-15T23:45:07.839Z,97.05
2017-12-15T23:47:36.168Z,96.37
2017-12-15T23:50:04.498Z,96.05
2017-12-15T23:52:32.824Z,96.44
2017-12-15T23:55:18.780Z,96.37
2017-12-15T23:57:47.098Z,95.83
